sensor_id;sensor_type;location;lat;lon;timestamp;temperature;humidity
25640;DHT22;13497;48.322;16.204;2023-07-20T00:02:24;21.20;94.70
25640;DHT22;13497;48.322;16.204;2023-07-20T00:04:49;21.20;94.70
25640;DHT22;13497;48.322;16.204;2023-07-20T00:07:15;21.10;94.90
25640;DHT22;13497;48.322;16.204;2023-07-20T00:09:40;21.00;95.10
25640;DHT22;13497;48.322;16.204;2023-07-20T00:12:07;20.90;95.30
25640;DHT22;13497;48.322;16.204;2023-07-20T00:14:32;20.90;95.40
25640;DHT22;13497;48.322;16.204;2023-07-20T00:16:58;20.80;95.50
25640;DHT22;13497;48.322;16.204;2023-07-20T00:19:26;20.80;95.80
25640;DHT22;13497;48.322;16.204;2023-07-20T00:21:52;20.90;95.90
25640;DHT22;13497;48.322;16.204;2023-07-20T00:24:18;20.70;96.00
25640;DHT22;13497;48.322;16.204;2023-07-20T00:26:44;20.70;96.30
25640;DHT22;13497;48.322;16.204;2023-07-20T00:29:10;20.70;96.30
25640;DHT22;13497;48.322;16.204;2023-07-20T00:31:36;20.70;96.30
25640;DHT22;13497;48.322;16.204;2023-07-20T00:34:05;20.70;96.30
25640;DHT22;13497;48.322;16.204;2023-07-20T00:36:32;20.50;96.40
25640;DHT22;13497;48.322;16.204;2023-07-20T00:38:58;20.60;96.60
25640;DHT22;13497;48.322;16.204;2023-07-20T00:41:23;20.70;96.60
25640;DHT22;13497;48.322;16.204;2023-07-20T00:43:50;20.70;96.40
25640;DHT22;13497;48.322;16.204;2023-07-20T00:46:16;20.70;96.40
25640;DHT22;13497;48.322;16.204;2023-07-20T00:48:42;20.80;96.50
25640;DHT22;13497;48.322;16.204;2023-07-20T00:51:08;20.80;96.50
25640;DHT22;13497;48.322;16.204;2023-07-20T00:53:34;20.60;96.60
25640;DHT22;13497;48.322;16.204;2023-07-20T00:56:00;20.50;96.90
25640;DHT22;13497;48.322;16.204;2023-07-20T00:58:26;20.50;97.00
25640;DHT22;13497;48.322;16.204;2023-07-20T01:00:52;20.50;97.00
25640;DHT22;13497;48.322;16.204;2023-07-20T01:03:17;20.50;97.10
25640;DHT22;13497;48.322;16.204;2023-07-20T01:05:54;20.50;97.10
25640;DHT22;13497;48.322;16.204;2023-07-20T01:08:56;20.60;97.00
25640;DHT22;13497;48.322;16.204;2023-07-20T01:11:47;20.60;97.00
25640;DHT22;13497;48.322;16.204;2023-07-20T01:14:15;20.70;97.00
25640;DHT22;13497;48.322;16.204;2023-07-20T01:16:42;20.70;96.90
25640;DHT22;13497;48.322;16.204;2023-07-20T01:19:07;20.60;97.00
25640;DHT22;13497;48.322;16.204;2023-07-20T01:25:18;20.60;97.20
25640;DHT22;13497;48.322;16.204;2023-07-20T01:32:31;20.70;97.50
25640;DHT22;13497;48.322;16.204;2023-07-20T01:34:56;20.70;97.50
25640;DHT22;13497;48.322;16.204;2023-07-20T01:37:24;20.60;97.60
25640;DHT22;13497;48.322;16.204;2023-07-20T01:39:54;20.50;97.50
25640;DHT22;13497;48.322;16.204;2023-07-20T01:42:23;20.50;97.80
25640;DHT22;13497;48.322;16.204;2023-07-20T01:44:53;20.50;97.70
25640;DHT22;13497;48.322;16.204;2023-07-20T01:47:19;20.40;97.90
25640;DHT22;13497;48.322;16.204;2023-07-20T01:49:45;20.40;97.80
25640;DHT22;13497;48.322;16.204;2023-07-20T01:52:11;20.40;98.10
25640;DHT22;13497;48.322;16.204;2023-07-20T01:54:36;20.40;98.20
25640;DHT22;13497;48.322;16.204;2023-07-20T01:57:02;20.40;98.20
25640;DHT22;13497;48.322;16.204;2023-07-20T01:59:28;20.40;98.20
25640;DHT22;13497;48.322;16.204;2023-07-20T02:01:56;20.40;98.30
25640;DHT22;13497;48.322;16.204;2023-07-20T02:04:22;20.40;98.40
25640;DHT22;13497;48.322;16.204;2023-07-20T02:06:47;20.40;98.70
25640;DHT22;13497;48.322;16.204;2023-07-20T02:09:13;20.40;98.70
25640;DHT22;13497;48.322;16.204;2023-07-20T02:11:39;20.30;98.70
25640;DHT22;13497;48.322;16.204;2023-07-20T02:14:04;20.30;98.60
25640;DHT22;13497;48.322;16.204;2023-07-20T02:16:30;20.30;98.60
25640;DHT22;13497;48.322;16.204;2023-07-20T02:18:56;20.30;98.80
25640;DHT22;13497;48.322;16.204;2023-07-20T02:21:22;20.30;98.80
25640;DHT22;13497;48.322;16.204;2023-07-20T02:23:48;20.30;98.80
25640;DHT22;13497;48.322;16.204;2023-07-20T02:26:14;20.20;99.20
25640;DHT22;13497;48.322;16.204;2023-07-20T02:28:40;20.20;99.30
25640;DHT22;13497;48.322;16.204;2023-07-20T02:31:07;20.10;99.40
25640;DHT22;13497;48.322;16.204;2023-07-20T02:33:32;20.10;99.50
25640;DHT22;13497;48.322;16.204;2023-07-20T02:35:58;20.10;99.60
25640;DHT22;13497;48.322;16.204;2023-07-20T02:38:24;20.10;99.70
25640;DHT22;13497;48.322;16.204;2023-07-20T02:40:49;20.10;99.90
25640;DHT22;13497;48.322;16.204;2023-07-20T02:43:15;20.20;99.80
25640;DHT22;13497;48.322;16.204;2023-07-20T02:45:41;20.30;99.70
25640;DHT22;13497;48.322;16.204;2023-07-20T02:48:10;20.40;99.50
25640;DHT22;13497;48.322;16.204;2023-07-20T02:50:35;20.40;99.60
25640;DHT22;13497;48.322;16.204;2023-07-20T02:53:02;20.30;99.60
25640;DHT22;13497;48.322;16.204;2023-07-20T02:55:27;20.20;99.90
25640;DHT22;13497;48.322;16.204;2023-07-20T02:57:53;20.10;99.90
25640;DHT22;13497;48.322;16.204;2023-07-20T03:00:19;20.00;99.90
25640;DHT22;13497;48.322;16.204;2023-07-20T03:02:46;20.00;99.90
25640;DHT22;13497;48.322;16.204;2023-07-20T03:05:13;20.00;99.90
25640;DHT22;13497;48.322;16.204;2023-07-20T03:07:39;20.00;99.90
25640;DHT22;13497;48.322;16.204;2023-07-20T03:10:05;20.00;99.90
25640;DHT22;13497;48.322;16.204;2023-07-20T03:12:35;20.20;99.90
25640;DHT22;13497;48.322;16.204;2023-07-20T03:15:02;20.20;99.90
25640;DHT22;13497;48.322;16.204;2023-07-20T03:17:28;20.30;99.90
25640;DHT22;13497;48.322;16.204;2023-07-20T03:19:53;20.40;99.90
25640;DHT22;13497;48.322;16.204;2023-07-20T03:22:19;20.40;99.90
25640;DHT22;13497;48.322;16.204;2023-07-20T03:24:44;20.50;99.90
25640;DHT22;13497;48.322;16.204;2023-07-20T03:27:10;20.50;99.90
25640;DHT22;13497;48.322;16.204;2023-07-20T03:29:36;20.50;99.90
25640;DHT22;13497;48.322;16.204;2023-07-20T03:32:01;20.50;99.80
25640;DHT22;13497;48.322;16.204;2023-07-20T03:34:28;20.60;99.70
25640;DHT22;13497;48.322;16.204;2023-07-20T03:36:54;20.60;99.60
25640;DHT22;13497;48.322;16.204;2023-07-20T03:39:19;20.70;99.40
25640;DHT22;13497;48.322;16.204;2023-07-20T03:41:45;20.70;99.40
25640;DHT22;13497;48.322;16.204;2023-07-20T03:44:10;20.70;99.40
25640;DHT22;13497;48.322;16.204;2023-07-20T03:46:36;20.80;99.30
25640;DHT22;13497;48.322;16.204;2023-07-20T03:49:02;20.90;99.20
25640;DHT22;13497;48.322;16.204;2023-07-20T03:51:28;21.00;99.00
25640;DHT22;13497;48.322;16.204;2023-07-20T03:53:54;21.10;98.80
25640;DHT22;13497;48.322;16.204;2023-07-20T03:56:20;21.30;98.70
25640;DHT22;13497;48.322;16.204;2023-07-20T03:58:45;21.40;98.50
25640;DHT22;13497;48.322;16.204;2023-07-20T04:01:11;21.40;98.50
25640;DHT22;13497;48.322;16.204;2023-07-20T04:03:38;21.40;98.60
25640;DHT22;13497;48.322;16.204;2023-07-20T04:06:04;21.40;98.60
25640;DHT22;13497;48.322;16.204;2023-07-20T04:08:30;21.40;98.50
25640;DHT22;13497;48.322;16.204;2023-07-20T04:10:56;21.60;98.50
25640;DHT22;13497;48.322;16.204;2023-07-20T04:13:22;21.80;98.20
25640;DHT22;13497;48.322;16.204;2023-07-20T04:15:47;22.00;97.80
25640;DHT22;13497;48.322;16.204;2023-07-20T04:18:13;22.40;97.80
25640;DHT22;13497;48.322;16.204;2023-07-20T04:20:39;23.00;97.00
25640;DHT22;13497;48.322;16.204;2023-07-20T04:23:04;23.70;96.00
25640;DHT22;13497;48.322;16.204;2023-07-20T04:25:30;24.50;94.90
25640;DHT22;13497;48.322;16.204;2023-07-20T04:28:04;24.90;94.40
25640;DHT22;13497;48.322;16.204;2023-07-20T04:30:30;25.70;93.50
25640;DHT22;13497;48.322;16.204;2023-07-20T04:32:56;26.40;92.30
25640;DHT22;13497;48.322;16.204;2023-07-20T04:38:12;27.60;90.80
25640;DHT22;13497;48.322;16.204;2023-07-20T04:40:38;27.40;90.80
25640;DHT22;13497;48.322;16.204;2023-07-20T04:43:03;26.80;91.00
25640;DHT22;13497;48.322;16.204;2023-07-20T04:45:29;26.40;91.60
25640;DHT22;13497;48.322;16.204;2023-07-20T04:47:55;26.40;92.00
25640;DHT22;13497;48.322;16.204;2023-07-20T04:50:20;26.90;91.60
25640;DHT22;13497;48.322;16.204;2023-07-20T04:52:46;26.70;91.40
25640;DHT22;13497;48.322;16.204;2023-07-20T04:55:13;26.20;91.70
25640;DHT22;13497;48.322;16.204;2023-07-20T04:57:39;25.60;92.60
25640;DHT22;13497;48.322;16.204;2023-07-20T05:00:05;25.10;93.10
25640;DHT22;13497;48.322;16.204;2023-07-20T05:02:31;24.30;93.80
25640;DHT22;13497;48.322;16.204;2023-07-20T05:04:57;24.30;94.40
25640;DHT22;13497;48.322;16.204;2023-07-20T05:07:23;24.80;93.70
25640;DHT22;13497;48.322;16.204;2023-07-20T05:09:48;25.20;93.10
25640;DHT22;13497;48.322;16.204;2023-07-20T05:12:14;24.70;93.50
25640;DHT22;13497;48.322;16.204;2023-07-20T05:14:40;24.00;94.20
25640;DHT22;13497;48.322;16.204;2023-07-20T05:17:07;23.60;94.90
25640;DHT22;13497;48.322;16.204;2023-07-20T05:19:32;23.50;95.30
25640;DHT22;13497;48.322;16.204;2023-07-20T05:21:58;23.60;95.40
25640;DHT22;13497;48.322;16.204;2023-07-20T05:24:24;23.60;95.10
25640;DHT22;13497;48.322;16.204;2023-07-20T05:26:49;23.40;95.10
25640;DHT22;13497;48.322;16.204;2023-07-20T05:29:15;23.20;95.40
25640;DHT22;13497;48.322;16.204;2023-07-20T05:31:41;23.90;94.90
25640;DHT22;13497;48.322;16.204;2023-07-20T05:34:06;24.80;93.70
25640;DHT22;13497;48.322;16.204;2023-07-20T05:36:32;25.40;92.90
25640;DHT22;13497;48.322;16.204;2023-07-20T05:38:58;25.90;92.30
25640;DHT22;13497;48.322;16.204;2023-07-20T05:41:23;26.50;91.40
25640;DHT22;13497;48.322;16.204;2023-07-20T05:43:49;26.80;91.10
25640;DHT22;13497;48.322;16.204;2023-07-20T05:46:15;27.20;90.40
25640;DHT22;13497;48.322;16.204;2023-07-20T05:48:40;27.80;90.00
25640;DHT22;13497;48.322;16.204;2023-07-20T05:51:06;28.30;87.90
25640;DHT22;13497;48.322;16.204;2023-07-20T05:53:32;28.80;87.50
25640;DHT22;13497;48.322;16.204;2023-07-20T05:55:57;28.70;89.30
25640;DHT22;13497;48.322;16.204;2023-07-20T05:58:23;28.70;89.20
25640;DHT22;13497;48.322;16.204;2023-07-20T06:00:50;29.20;88.10
25640;DHT22;13497;48.322;16.204;2023-07-20T06:03:16;29.40;86.60
25640;DHT22;13497;48.322;16.204;2023-07-20T06:05:46;29.60;86.50
25640;DHT22;13497;48.322;16.204;2023-07-20T06:08:12;29.90;85.30
25640;DHT22;13497;48.322;16.204;2023-07-20T06:10:38;30.00;85.40
25640;DHT22;13497;48.322;16.204;2023-07-20T06:13:03;30.30;85.20
25640;DHT22;13497;48.322;16.204;2023-07-20T06:15:33;30.50;84.40
25640;DHT22;13497;48.322;16.204;2023-07-20T06:18:02;30.60;84.50
25640;DHT22;13497;48.322;16.204;2023-07-20T06:20:29;30.50;84.00
25640;DHT22;13497;48.322;16.204;2023-07-20T06:22:54;30.00;84.40
25640;DHT22;13497;48.322;16.204;2023-07-20T06:25:20;30.00;84.20
25640;DHT22;13497;48.322;16.204;2023-07-20T06:27:46;30.10;83.20
25640;DHT22;13497;48.322;16.204;2023-07-20T06:30:12;30.10;82.70
25640;DHT22;13497;48.322;16.204;2023-07-20T06:32:38;30.30;81.90
25640;DHT22;13497;48.322;16.204;2023-07-20T06:35:04;30.30;82.20
25640;DHT22;13497;48.322;16.204;2023-07-20T06:37:29;30.40;81.50
25640;DHT22;13497;48.322;16.204;2023-07-20T06:39:55;30.10;81.40
25640;DHT22;13497;48.322;16.204;2023-07-20T06:42:20;29.90;81.90
25640;DHT22;13497;48.322;16.204;2023-07-20T06:44:46;29.90;82.00
25640;DHT22;13497;48.322;16.204;2023-07-20T06:47:12;29.90;81.70
25640;DHT22;13497;48.322;16.204;2023-07-20T06:49:37;29.60;81.70
25640;DHT22;13497;48.322;16.204;2023-07-20T06:52:03;29.30;81.70
25640;DHT22;13497;48.322;16.204;2023-07-20T06:54:29;28.70;83.00
25640;DHT22;13497;48.322;16.204;2023-07-20T06:56:55;27.80;84.00
25640;DHT22;13497;48.322;16.204;2023-07-20T06:59:20;26.80;86.40
25640;DHT22;13497;48.322;16.204;2023-07-20T07:01:46;26.10;88.20
25640;DHT22;13497;48.322;16.204;2023-07-20T07:04:12;25.60;89.40
25640;DHT22;13497;48.322;16.204;2023-07-20T07:06:38;25.30;89.40
25640;DHT22;13497;48.322;16.204;2023-07-20T07:09:03;25.30;89.80
25640;DHT22;13497;48.322;16.204;2023-07-20T07:11:29;25.30;89.60
25640;DHT22;13497;48.322;16.204;2023-07-20T07:13:55;25.40;90.10
25640;DHT22;13497;48.322;16.204;2023-07-20T07:16:21;25.40;89.40
25640;DHT22;13497;48.322;16.204;2023-07-20T07:18:46;25.30;89.30
25640;DHT22;13497;48.322;16.204;2023-07-20T07:21:12;25.20;90.00
25640;DHT22;13497;48.322;16.204;2023-07-20T07:23:38;25.30;90.00
25640;DHT22;13497;48.322;16.204;2023-07-20T07:26:04;25.50;90.00
25640;DHT22;13497;48.322;16.204;2023-07-20T07:28:30;25.70;89.20
25640;DHT22;13497;48.322;16.204;2023-07-20T07:30:57;25.80;89.30
25640;DHT22;13497;48.322;16.204;2023-07-20T07:33:23;26.10;88.60
25640;DHT22;13497;48.322;16.204;2023-07-20T07:35:50;26.20;88.70
25640;DHT22;13497;48.322;16.204;2023-07-20T07:38:16;26.20;88.60
25640;DHT22;13497;48.322;16.204;2023-07-20T07:40:42;26.30;88.30
25640;DHT22;13497;48.322;16.204;2023-07-20T07:43:08;26.30;87.00
25640;DHT22;13497;48.322;16.204;2023-07-20T07:45:35;26.00;86.90
25640;DHT22;13497;48.322;16.204;2023-07-20T07:48:05;25.70;87.80
25640;DHT22;13497;48.322;16.204;2023-07-20T07:50:31;25.70;87.60
25640;DHT22;13497;48.322;16.204;2023-07-20T07:52:57;25.60;87.80
25640;DHT22;13497;48.322;16.204;2023-07-20T07:55:22;25.60;89.10
25640;DHT22;13497;48.322;16.204;2023-07-20T07:57:48;25.70;88.20
25640;DHT22;13497;48.322;16.204;2023-07-20T08:00:14;25.80;87.20
25640;DHT22;13497;48.322;16.204;2023-07-20T08:02:43;26.00;86.80
25640;DHT22;13497;48.322;16.204;2023-07-20T08:05:09;26.30;86.40
25640;DHT22;13497;48.322;16.204;2023-07-20T08:07:36;26.60;85.30
25640;DHT22;13497;48.322;16.204;2023-07-20T08:10:02;26.60;85.10
25640;DHT22;13497;48.322;16.204;2023-07-20T08:12:28;26.90;85.50
25640;DHT22;13497;48.322;16.204;2023-07-20T08:14:53;27.20;84.50
25640;DHT22;13497;48.322;16.204;2023-07-20T08:17:19;27.60;84.10
25640;DHT22;13497;48.322;16.204;2023-07-20T08:19:46;27.90;82.70
25640;DHT22;13497;48.322;16.204;2023-07-20T08:22:12;28.10;83.20
25640;DHT22;13497;48.322;16.204;2023-07-20T08:24:41;28.00;83.20
25640;DHT22;13497;48.322;16.204;2023-07-20T08:27:07;27.60;82.90
25640;DHT22;13497;48.322;16.204;2023-07-20T08:29:34;27.30;83.60
25640;DHT22;13497;48.322;16.204;2023-07-20T08:32:00;27.00;83.60
25640;DHT22;13497;48.322;16.204;2023-07-20T08:34:25;26.70;84.30
25640;DHT22;13497;48.322;16.204;2023-07-20T08:36:51;26.30;85.00
25640;DHT22;13497;48.322;16.204;2023-07-20T08:39:17;26.10;85.50
25640;DHT22;13497;48.322;16.204;2023-07-20T08:41:43;26.10;86.30
25640;DHT22;13497;48.322;16.204;2023-07-20T08:44:10;26.10;86.80
25640;DHT22;13497;48.322;16.204;2023-07-20T08:46:38;26.00;87.40
25640;DHT22;13497;48.322;16.204;2023-07-20T08:49:05;25.80;88.20
25640;DHT22;13497;48.322;16.204;2023-07-20T08:51:32;26.00;87.80
25640;DHT22;13497;48.322;16.204;2023-07-20T08:53:58;26.40;87.20
25640;DHT22;13497;48.322;16.204;2023-07-20T08:56:25;27.00;86.00
25640;DHT22;13497;48.322;16.204;2023-07-20T08:58:55;27.20;84.00
25640;DHT22;13497;48.322;16.204;2023-07-20T09:01:22;27.30;83.50
25640;DHT22;13497;48.322;16.204;2023-07-20T09:03:48;27.10;84.00
25640;DHT22;13497;48.322;16.204;2023-07-20T09:06:15;27.00;84.80
25640;DHT22;13497;48.322;16.204;2023-07-20T09:08:41;26.80;85.10
25640;DHT22;13497;48.322;16.204;2023-07-20T09:11:07;27.00;85.60
25640;DHT22;13497;48.322;16.204;2023-07-20T09:13:33;27.00;83.90
25640;DHT22;13497;48.322;16.204;2023-07-20T09:15:59;27.00;83.70
25640;DHT22;13497;48.322;16.204;2023-07-20T09:18:29;27.00;83.90
25640;DHT22;13497;48.322;16.204;2023-07-20T09:21:03;27.10;84.10
25640;DHT22;13497;48.322;16.204;2023-07-20T09:23:38;27.40;83.20
25640;DHT22;13497;48.322;16.204;2023-07-20T09:26:14;27.50;83.20
25640;DHT22;13497;48.322;16.204;2023-07-20T09:28:52;27.70;82.30
25640;DHT22;13497;48.322;16.204;2023-07-20T09:31:19;27.50;82.20
25640;DHT22;13497;48.322;16.204;2023-07-20T09:33:45;27.40;82.90
25640;DHT22;13497;48.322;16.204;2023-07-20T09:36:11;27.50;82.40
25640;DHT22;13497;48.322;16.204;2023-07-20T09:38:38;27.50;83.00
25640;DHT22;13497;48.322;16.204;2023-07-20T09:41:05;27.50;83.00
25640;DHT22;13497;48.322;16.204;2023-07-20T09:43:34;27.30;83.10
25640;DHT22;13497;48.322;16.204;2023-07-20T09:46:01;27.30;83.90
25640;DHT22;13497;48.322;16.204;2023-07-20T09:48:27;27.30;83.80
25640;DHT22;13497;48.322;16.204;2023-07-20T09:50:53;27.30;84.20
25640;DHT22;13497;48.322;16.204;2023-07-20T09:53:20;27.30;83.80
25640;DHT22;13497;48.322;16.204;2023-07-20T09:55:47;27.30;84.30
25640;DHT22;13497;48.322;16.204;2023-07-20T09:58:13;27.40;84.20
25640;DHT22;13497;48.322;16.204;2023-07-20T10:00:40;27.70;84.70
25640;DHT22;13497;48.322;16.204;2023-07-20T10:03:11;28.00;84.60
25640;DHT22;13497;48.322;16.204;2023-07-20T10:05:40;28.20;84.00
25640;DHT22;13497;48.322;16.204;2023-07-20T10:08:11;28.20;83.70
25640;DHT22;13497;48.322;16.204;2023-07-20T10:10:39;28.20;82.80
25640;DHT22;13497;48.322;16.204;2023-07-20T10:13:06;27.70;83.10
25640;DHT22;13497;48.322;16.204;2023-07-20T10:15:43;27.40;84.20
25640;DHT22;13497;48.322;16.204;2023-07-20T10:20:51;26.90;84.20
25640;DHT22;13497;48.322;16.204;2023-07-20T10:23:17;27.30;83.50
25640;DHT22;13497;48.322;16.204;2023-07-20T10:25:43;27.40;83.20
25640;DHT22;13497;48.322;16.204;2023-07-20T10:28:10;27.20;82.50
25640;DHT22;13497;48.322;16.204;2023-07-20T10:30:36;26.80;82.10
25640;DHT22;13497;48.322;16.204;2023-07-20T10:33:03;27.00;82.90
25640;DHT22;13497;48.322;16.204;2023-07-20T10:35:29;27.50;81.90
25640;DHT22;13497;48.322;16.204;2023-07-20T10:38:02;27.80;81.20
25640;DHT22;13497;48.322;16.204;2023-07-20T10:40:31;28.00;80.60
25640;DHT22;13497;48.322;16.204;2023-07-20T10:43:02;28.10;80.10
25640;DHT22;13497;48.322;16.204;2023-07-20T10:46:04;28.00;78.10
25640;DHT22;13497;48.322;16.204;2023-07-20T10:48:29;27.70;78.40
25640;DHT22;13497;48.322;16.204;2023-07-20T10:51:56;27.80;79.30
25640;DHT22;13497;48.322;16.204;2023-07-20T10:56:48;28.60;78.60
25640;DHT22;13497;48.322;16.204;2023-07-20T11:01:57;29.10;77.20
25640;DHT22;13497;48.322;16.204;2023-07-20T11:04:47;29.00;75.80
25640;DHT22;13497;48.322;16.204;2023-07-20T11:07:17;28.50;75.50
25640;DHT22;13497;48.322;16.204;2023-07-20T11:09:44;28.50;76.40
25640;DHT22;13497;48.322;16.204;2023-07-20T11:12:13;28.50;76.80
25640;DHT22;13497;48.322;16.204;2023-07-20T11:15:01;28.50;77.40
25640;DHT22;13497;48.322;16.204;2023-07-20T11:17:31;28.40;76.40
25640;DHT22;13497;48.322;16.204;2023-07-20T11:19:57;28.50;76.60
25640;DHT22;13497;48.322;16.204;2023-07-20T11:22:24;28.60;75.70
25640;DHT22;13497;48.322;16.204;2023-07-20T11:24:49;28.80;75.90
25640;DHT22;13497;48.322;16.204;2023-07-20T11:27:16;28.80;74.90
25640;DHT22;13497;48.322;16.204;2023-07-20T11:29:45;28.90;75.90
25640;DHT22;13497;48.322;16.204;2023-07-20T11:32:11;29.10;75.50
25640;DHT22;13497;48.322;16.204;2023-07-20T11:34:36;29.00;74.60
25640;DHT22;13497;48.322;16.204;2023-07-20T11:37:02;28.70;74.90
25640;DHT22;13497;48.322;16.204;2023-07-20T11:39:29;29.00;76.50
25640;DHT22;13497;48.322;16.204;2023-07-20T11:41:56;29.30;73.70
25640;DHT22;13497;48.322;16.204;2023-07-20T11:44:23;29.20;74.30
25640;DHT22;13497;48.322;16.204;2023-07-20T11:47:00;28.80;75.70
25640;DHT22;13497;48.322;16.204;2023-07-20T11:49:28;28.80;75.70
25640;DHT22;13497;48.322;16.204;2023-07-20T11:51:55;28.50;75.30
25640;DHT22;13497;48.322;16.204;2023-07-20T11:54:21;28.30;75.60
25640;DHT22;13497;48.322;16.204;2023-07-20T11:56:46;28.20;76.40
25640;DHT22;13497;48.322;16.204;2023-07-20T11:59:12;27.80;76.60
25640;DHT22;13497;48.322;16.204;2023-07-20T12:01:38;27.50;76.20
25640;DHT22;13497;48.322;16.204;2023-07-20T12:04:04;27.60;77.30
25640;DHT22;13497;48.322;16.204;2023-07-20T12:06:30;27.80;77.20
25640;DHT22;13497;48.322;16.204;2023-07-20T12:08:58;27.90;76.10
25640;DHT22;13497;48.322;16.204;2023-07-20T12:11:35;27.90;75.60
25640;DHT22;13497;48.322;16.204;2023-07-20T12:14:01;28.20;76.10
25640;DHT22;13497;48.322;16.204;2023-07-20T12:16:28;28.10;74.80
25640;DHT22;13497;48.322;16.204;2023-07-20T12:19:05;28.20;75.40
25640;DHT22;13497;48.322;16.204;2023-07-20T12:21:32;28.20;74.40
25640;DHT22;13497;48.322;16.204;2023-07-20T12:23:59;27.80;74.70
25640;DHT22;13497;48.322;16.204;2023-07-20T12:26:25;27.60;75.00
25640;DHT22;13497;48.322;16.204;2023-07-20T12:28:52;27.80;74.40
25640;DHT22;13497;48.322;16.204;2023-07-20T12:31:17;28.00;74.30
25640;DHT22;13497;48.322;16.204;2023-07-20T12:33:44;28.10;73.90
25640;DHT22;13497;48.322;16.204;2023-07-20T12:36:10;27.90;73.90
25640;DHT22;13497;48.322;16.204;2023-07-20T12:38:36;27.80;74.60
25640;DHT22;13497;48.322;16.204;2023-07-20T12:41:03;27.80;74.10
25640;DHT22;13497;48.322;16.204;2023-07-20T12:43:29;27.90;74.40
25640;DHT22;13497;48.322;16.204;2023-07-20T12:45:56;28.10;74.10
25640;DHT22;13497;48.322;16.204;2023-07-20T12:48:22;28.30;74.60
25640;DHT22;13497;48.322;16.204;2023-07-20T12:50:48;28.80;73.80
25640;DHT22;13497;48.322;16.204;2023-07-20T12:53:13;29.10;72.50
25640;DHT22;13497;48.322;16.204;2023-07-20T12:55:39;29.00;72.10
25640;DHT22;13497;48.322;16.204;2023-07-20T12:58:06;28.80;72.60
25640;DHT22;13497;48.322;16.204;2023-07-20T13:00:32;28.80;72.20
25640;DHT22;13497;48.322;16.204;2023-07-20T13:02:57;28.90;72.60
25640;DHT22;13497;48.322;16.204;2023-07-20T13:05:23;28.90;71.40
25640;DHT22;13497;48.322;16.204;2023-07-20T13:07:49;29.10;72.30
25640;DHT22;13497;48.322;16.204;2023-07-20T13:10:15;29.30;71.50
25640;DHT22;13497;48.322;16.204;2023-07-20T13:12:40;29.50;71.70
25640;DHT22;13497;48.322;16.204;2023-07-20T13:15:06;29.70;70.10
25640;DHT22;13497;48.322;16.204;2023-07-20T13:17:37;29.60;71.70
25640;DHT22;13497;48.322;16.204;2023-07-20T13:20:08;29.30;72.70
25640;DHT22;13497;48.322;16.204;2023-07-20T13:22:40;29.40;73.60
25640;DHT22;13497;48.322;16.204;2023-07-20T13:25:07;29.60;73.10
25640;DHT22;13497;48.322;16.204;2023-07-20T13:27:33;29.40;73.10
25640;DHT22;13497;48.322;16.204;2023-07-20T13:30:00;29.00;73.80
25640;DHT22;13497;48.322;16.204;2023-07-20T13:32:27;28.90;74.60
25640;DHT22;13497;48.322;16.204;2023-07-20T13:34:52;29.00;74.60
25640;DHT22;13497;48.322;16.204;2023-07-20T13:37:18;29.00;74.20
25640;DHT22;13497;48.322;16.204;2023-07-20T13:39:44;28.90;74.00
25640;DHT22;13497;48.322;16.204;2023-07-20T13:42:10;28.60;74.50
25640;DHT22;13497;48.322;16.204;2023-07-20T13:44:37;28.40;75.20
25640;DHT22;13497;48.322;16.204;2023-07-20T13:47:03;28.40;75.00
25640;DHT22;13497;48.322;16.204;2023-07-20T13:49:31;28.70;75.50
25640;DHT22;13497;48.322;16.204;2023-07-20T13:51:57;28.90;74.40
25640;DHT22;13497;48.322;16.204;2023-07-20T13:54:23;29.10;74.50
25640;DHT22;13497;48.322;16.204;2023-07-20T13:56:49;29.20;74.00
25640;DHT22;13497;48.322;16.204;2023-07-20T13:59:14;29.20;73.50
25640;DHT22;13497;48.322;16.204;2023-07-20T14:01:40;29.30;73.10
25640;DHT22;13497;48.322;16.204;2023-07-20T14:04:06;29.70;72.90
25640;DHT22;13497;48.322;16.204;2023-07-20T14:06:33;29.50;73.40
25640;DHT22;13497;48.322;16.204;2023-07-20T14:08:59;29.60;73.30
25640;DHT22;13497;48.322;16.204;2023-07-20T14:11:25;29.80;72.80
25640;DHT22;13497;48.322;16.204;2023-07-20T14:13:51;29.70;72.70
25640;DHT22;13497;48.322;16.204;2023-07-20T14:16:18;29.60;72.70
25640;DHT22;13497;48.322;16.204;2023-07-20T14:18:44;29.60;72.80
25640;DHT22;13497;48.322;16.204;2023-07-20T14:21:13;29.40;72.60
25640;DHT22;13497;48.322;16.204;2023-07-20T14:23:38;29.00;73.40
25640;DHT22;13497;48.322;16.204;2023-07-20T14:26:04;29.10;73.90
25640;DHT22;13497;48.322;16.204;2023-07-20T14:28:31;29.20;74.00
25640;DHT22;13497;48.322;16.204;2023-07-20T14:30:57;29.50;73.00
25640;DHT22;13497;48.322;16.204;2023-07-20T14:33:23;29.60;73.30
25640;DHT22;13497;48.322;16.204;2023-07-20T14:35:48;29.60;73.10
25640;DHT22;13497;48.322;16.204;2023-07-20T14:38:14;29.80;73.00
25640;DHT22;13497;48.322;16.204;2023-07-20T14:40:40;30.00;72.30
25640;DHT22;13497;48.322;16.204;2023-07-20T14:43:06;30.30;72.10
25640;DHT22;13497;48.322;16.204;2023-07-20T14:45:32;30.30;72.60
25640;DHT22;13497;48.322;16.204;2023-07-20T14:47:58;30.40;69.30
25640;DHT22;13497;48.322;16.204;2023-07-20T14:50:24;30.30;69.80
25640;DHT22;13497;48.322;16.204;2023-07-20T14:52:50;30.10;67.90
25640;DHT22;13497;48.322;16.204;2023-07-20T14:55:15;29.90;66.90
25640;DHT22;13497;48.322;16.204;2023-07-20T14:57:42;29.60;67.80
25640;DHT22;13497;48.322;16.204;2023-07-20T15:00:08;29.90;67.20
25640;DHT22;13497;48.322;16.204;2023-07-20T15:02:36;30.10;67.50
25640;DHT22;13497;48.322;16.204;2023-07-20T15:05:09;30.10;67.60
25640;DHT22;13497;48.322;16.204;2023-07-20T15:07:36;29.70;67.20
25640;DHT22;13497;48.322;16.204;2023-07-20T15:10:02;29.60;67.70
25640;DHT22;13497;48.322;16.204;2023-07-20T15:12:28;29.50;66.70
25640;DHT22;13497;48.322;16.204;2023-07-20T15:15:06;29.60;67.60
25640;DHT22;13497;48.322;16.204;2023-07-20T15:17:34;29.40;68.10
25640;DHT22;13497;48.322;16.204;2023-07-20T15:20:00;29.50;67.60
25640;DHT22;13497;48.322;16.204;2023-07-20T15:22:26;29.50;66.80
25640;DHT22;13497;48.322;16.204;2023-07-20T15:24:51;29.60;67.80
25640;DHT22;13497;48.322;16.204;2023-07-20T15:27:17;29.60;66.60
25640;DHT22;13497;48.322;16.204;2023-07-20T15:29:43;29.50;67.10
25640;DHT22;13497;48.322;16.204;2023-07-20T15:32:10;29.50;67.70
25640;DHT22;13497;48.322;16.204;2023-07-20T15:34:35;29.70;68.30